TAF Text Data
IDs:
Format:
Raw Decoded Include METAR

Data at: 0226 UTC 23 Sep 2018

KALS 230152Z AUTO 09004KT 10SM CLR 16/03 A3025 RMK AO2 SLP182 T01560033

KALS 222335Z 2300/2324 VRB06KT P6SM FEW090
  FM230300 18006KT P6SM SKC
  FM230600 VRB03KT P6SM SKC